Leipsic, OH (45856)

12:15 PM EST on January 29, 2015 (GMT -0500)
APRSWXNET Leipsic OH US | Change Station
CLOSE
Current Station
Personal Weather Station
Location: Leipsic, OH
Elevation: 784 ft
Nearby Weather Stations

Elev 784 ft 41.10 °N, 83.99 °W | Updated 54 minutes ago

Rain
Rain
39 °F
Feels Like 33 °F
N
8
Wind Variable Wind from SSW
Gusts 18.0 mph

Today
High -- | Low -- °F
--% Chance of Precip.
Yesterday
High -- | Low -- °F
Precip. -- in
7:49 AM 5:48 PM
Waxing Gibbous, 75% visible
Pressure 29.75 in
Visibility 10.0 miles
Clouds Overcast 3200 ft
Windchill 33 °F
Dew Point 33 °F
Humidity 79%
Rainfall 0.00 in
Snow Depth Not available.
UV 1 out of 12
Pollen .10 out of 12
Air Quality Not available.
Flu Activity Not available.
METAR KFDY 291653Z AUTO 20012KT 10SM OVC032 03/M01 A2974 RMK AO2 RAB27E52 SLP073 P0000 T00331006

More Conditions Fewer Conditions

Pressure 29.75 in
Visibility 10.0 miles
Clouds Overcast 3200 ft
Windchill 33 °F
Dew Point 33 °F
Humidity 79%
Rainfall 0.00 in
Snow Depth Not available.
UV 1 out of 12
Pollen .10 out of 12
Air Quality Not available.
Flu Activity Not available.
METAR KFDY 291653Z AUTO 20012KT 10SM OVC032 03/M01 A2974 RMK AO2 RAB27E52 SLP073 P0000 T00331006

More Conditions Fewer Conditions

10-Day Weather Forecast

Almanac

Astronomy

Jan. 29, 2015 Rise Set
Actual Time
Civil Twilight
Nautical Twilight
Astronomical Twilight
Moon
Length of Visible Light
Length of Day
Tomorrow will be .
, % of the Moon is Illuminated

Today's Extremes

State Highs State Lows

Community

WunderPhotos

Upload Photos

1,791,480 photos uploaded!

WunderBlogs® & News

Nearby

Air Quality

  Air Quality AQ Index Pollutant
Not available.

Snow Depth

Station Depth Elevation

Earthquake Activity

City Distance Mag. Time & Date
Minimum magnitude displayed is 2.5.

Coastal Water Temperatures

Place Temperature

Nearby Weather Stations